Time;durP1;ratioP1;P1;durP2;ratioP2;P2;SDS_P1;SDS_P2;PMS_P1;PMS_P2;Temp;Humidity;BMP_temperature;BMP_pressure;BME280_temperature;BME280_humidity;BME280_pressure;Samples;Min_cycle;Max_cycle;Signal;HPM_P1;HPM_P2
2023/04/01 00:01:03;;;;;;;1.63;0.63;;;9.90;99.90;;;;;;4722925;30;20087;-89
2023/04/01 00:03:29;;;;;;;0.95;0.60;;;9.80;99.90;;;;;;4749740;30;20052;-88
2023/04/01 00:05:57;;;;;;;0.93;0.63;;;9.80;99.90;;;;;;4743804;30;20391;-89
2023/04/01 00:08:24;;;;;;;1.10;0.75;;;10.20;99.90;;;;;;4741592;30;20088;-87
2023/04/01 00:10:50;;;;;;;1.77;1.00;;;9.80;99.90;;;;;;4737004;30;20059;-89
2023/04/01 00:13:16;;;;;;;1.20;0.70;;;9.80;99.90;;;;;;4737926;30;20207;-89
2023/04/01 00:15:42;;;;;;;0.98;0.60;;;9.90;99.90;;;;;;4736986;30;20530;-89
2023/04/01 00:18:08;;;;;;;2.75;0.60;;;9.80;99.90;;;;;;4737638;30;20083;-88
2023/04/01 00:20:34;;;;;;;1.60;0.95;;;9.70;99.90;;;;;;4736785;30;20104;-87
2023/04/01 00:23:00;;;;;;;1.88;1.00;;;9.80;99.90;;;;;;4752781;30;20036;-88
2023/04/01 00:25:26;;;;;;;1.25;1.00;;;9.70;99.90;;;;;;4752924;30;20496;-88
2023/04/01 00:27:52;;;;;;;1.20;0.90;;;9.70;99.90;;;;;;4737048;30;20128;-88
2023/04/01 00:30:17;;;;;;;1.85;1.13;;;9.70;99.90;;;;;;4736981;30;20059;-89
2023/04/01 00:32:43;;;;;;;1.95;1.30;;;9.70;99.90;;;;;;4737465;30;20048;-88
2023/04/01 00:35:10;;;;;;;1.95;1.30;;;9.70;99.90;;;;;;4743722;30;20123;-88
2023/04/01 00:37:39;;;;;;;1.45;0.85;;;9.70;99.90;;;;;;4737289;30;20048;-86
2023/04/01 00:40:06;;;;;;;1.90;1.20;;;9.70;99.90;;;;;;4752191;30;20153;-87
2023/04/01 00:42:32;;;;;;;2.30;1.13;;;9.60;99.90;;;;;;4736698;30;20071;-87
2023/04/01 00:44:58;;;;;;;1.52;0.95;;;9.70;99.90;;;;;;4752218;30;20411;-88
2023/04/01 00:47:26;;;;;;;2.28;1.10;;;9.70;99.90;;;;;;4736261;30;20102;-87
2023/04/01 00:49:54;;;;;;;2.65;1.40;;;9.70;99.90;;;;;;4736566;30;20426;-88
2023/04/01 00:52:25;;;;;;;2.95;1.35;;;9.70;99.90;;;;;;4751890;30;20483;-88
2023/04/01 00:54:58;;;;;;;1.92;1.20;;;9.70;99.90;;;;;;4752204;30;20063;-87
2023/04/01 00:57:32;;;;;;;3.20;1.70;;;9.70;99.90;;;;;;4736045;30;20060;-88
2023/04/01 00:59:59;;;;;;;1.98;1.20;;;9.60;99.90;;;;;;4737112;30;20059;-87
2023/04/01 01:02:25;;;;;;;1.50;0.95;;;10.60;99.90;;;;;;4736252;30;20056;-87
2023/04/01 01:04:51;;;;;;;1.60;0.98;;;10.20;99.90;;;;;;4736293;30;20131;-88
2023/04/01 01:07:32;;;;;;;1.38;0.90;;;9.70;99.90;;;;;;4735864;30;20076;-87
2023/04/01 01:10:17;;;;;;;2.03;1.30;;;9.70;99.90;;;;;;4746411;30;20059;-88
2023/04/01 01:12:48;;;;;;;1.67;1.00;;;10.10;99.90;;;;;;4736332;30;20052;-88
2023/04/01 01:15:24;;;;;;;1.65;0.90;;;10.30;99.90;;;;;;4736459;30;20309;-88
2023/04/01 01:18:05;;;;;;;2.83;0.90;;;9.60;99.90;;;;;;4735719;30;20755;-88
2023/04/01 01:20:48;;;;;;;1.13;0.80;;;9.60;99.90;;;;;;4742436;30;20054;-87
2023/04/01 01:23:41;;;;;;;2.33;1.10;;;9.60;99.90;;;;;;4746809;30;20048;-88
2023/04/01 01:26:22;;;;;;;1.58;0.90;;;9.60;99.90;;;;;;4730292;30;20052;-87
2023/04/01 01:29:20;;;;;;;1.70;1.30;;;9.70;99.90;;;;;;4757665;30;20055;-88
2023/04/01 01:31:52;;;;;;;2.25;1.60;;;9.60;99.90;;;;;;4686067;30;20192;-88
2023/04/01 01:34:55;;;;;;;2.67;1.67;;;9.60;99.90;;;;;;4671764;30;20437;-88
2023/04/01 01:37:24;;;;;;;2.17;1.38;;;9.60;99.90;;;;;;4672214;30;20066;-88
2023/04/01 01:40:01;;;;;;;2.45;1.60;;;9.60;99.90;;;;;;4672160;30;20051;-89
2023/04/01 01:42:29;;;;;;;3.35;1.92;;;10.40;99.90;;;;;;4680426;30;20070;-87
2023/04/01 01:44:59;;;;;;;2.17;1.38;;;9.60;99.90;;;;;;4685844;30;20061;-89
2023/04/01 01:47:26;;;;;;;2.75;1.55;;;10.10;99.90;;;;;;4671751;30;20054;-87
2023/04/01 01:49:54;;;;;;;1.83;1.15;;;9.60;99.90;;;;;;4685697;30;20156;-87
2023/04/01 01:52:21;;;;;;;1.88;1.40;;;10.30;99.90;;;;;;4685785;30;20425;-87
2023/04/01 01:54:52;;;;;;;2.10;1.73;;;10.40;99.90;;;;;;4686011;30;20049;-89
2023/04/01 01:57:23;;;;;;;1.65;1.10;;;10.00;99.90;;;;;;4671844;30;20065;-88
2023/04/01 01:59:50;;;;;;;2.58;1.50;;;10.00;99.90;;;;;;4686011;30;20082;-89
2023/04/01 02:02:17;;;;;;;2.42;1.42;;;9.60;99.90;;;;;;4691900;30;20524;-89
2023/04/01 02:04:45;;;;;;;3.25;1.83;;;10.30;99.90;;;;;;4671570;30;20068;-88
2023/04/01 02:07:27;;;;;;;3.30;2.20;;;10.40;99.90;;;;;;4702042;30;20408;-89
2023/04/01 02:09:53;;;;;;;2.05;1.30;;;9.60;99.90;;;;;;4735564;30;20529;-88
2023/04/01 02:12:21;;;;;;;2.45;1.38;;;10.30;99.90;;;;;;4741588;30;20059;-88
2023/04/01 02:14:52;;;;;;;2.58;1.60;;;9.60;99.90;;;;;;4748656;30;20106;-89
2023/04/01 02:17:21;;;;;;;2.33;1.50;;;9.60;99.90;;;;;;4741475;30;20113;-88
2023/04/01 02:19:52;;;;;;;2.20;1.42;;;9.90;99.90;;;;;;4741189;30;20052;-88
2023/04/01 02:22:26;;;;;;;2.42;1.67;;;10.50;99.90;;;;;;4741451;30;20048;-88
2023/04/01 02:24:57;;;;;;;2.03;1.23;;;9.60;99.90;;;;;;4758684;30;20056;-89
2023/04/01 02:27:23;;;;;;;1.67;1.30;;;9.60;99.90;;;;;;4757425;30;20084;-89
2023/04/01 02:29:50;;;;;;;2.40;1.70;;;9.80;99.90;;;;;;4757239;30;20056;-88
2023/04/01 02:32:17;;;;;;;4.63;1.88;;;9.90;99.90;;;;;;4742737;30;20052;-89
2023/04/01 02:34:43;;;;;;;3.97;2.20;;;9.60;99.90;;;;;;4757447;30;20106;-86
2023/04/01 02:37:11;;;;;;;3.78;2.30;;;9.90;99.90;;;;;;4757215;30;20048;-89
2023/04/01 02:39:37;;;;;;;5.45;1.95;;;9.70;99.90;;;;;;4758848;30;20059;-88
2023/04/01 02:42:03;;;;;;;3.67;1.95;;;10.00;99.90;;;;;;4738764;30;20052;-88
2023/04/01 02:44:28;;;;;;;3.05;1.85;;;10.00;99.90;;;;;;4754255;30;20104;-89
2023/04/01 02:46:54;;;;;;;3.38;1.92;;;9.60;99.90;;;;;;4754213;30;20055;-88
2023/04/01 02:49:20;;;;;;;4.47;2.13;;;9.60;99.90;;;;;;4745292;30;20047;-89
2023/04/01 02:51:46;;;;;;;3.55;2.38;;;10.40;99.90;;;;;;4738409;30;20067;-88
2023/04/01 02:54:11;;;;;;;3.72;2.25;;;10.00;99.90;;;;;;4738231;30;20040;-90
2023/04/01 02:56:37;;;;;;;5.15;3.47;;;9.60;99.90;;;;;;4738313;30;20487;-88
2023/04/01 02:59:03;;;;;;;5.90;2.85;;;10.60;99.90;;;;;;4738518;30;20054;-89
2023/04/01 03:01:29;;;;;;;5.57;3.08;;;9.80;99.90;;;;;;4754253;30;20062;-90
2023/04/01 03:03:54;;;;;;;4.57;2.95;;;9.60;99.90;;;;;;4738023;30;20510;-89
2023/04/01 03:06:20;;;;;;;4.70;2.72;;;9.60;99.90;;;;;;4742131;30;20414;-89
2023/04/01 03:08:46;;;;;;;3.30;2.30;;;10.30;99.90;;;;;;4738552;30;20047;-89
2023/04/01 03:11:12;;;;;;;3.67;1.95;;;9.60;99.90;;;;;;4738696;30;20052;-88
2023/04/01 03:13:38;;;;;;;4.13;2.22;;;9.60;99.90;;;;;;4737942;30;20052;-88
2023/04/01 03:16:04;;;;;;;3.33;2.13;;;9.90;99.90;;;;;;4723585;30;20052;-88
2023/04/01 03:18:30;;;;;;;3.38;1.77;;;9.60;99.90;;;;;;4738465;30;20453;-89
2023/04/01 03:20:56;;;;;;;4.10;2.38;;;10.50;99.90;;;;;;4753861;30;20048;-88
2023/04/01 03:23:24;;;;;;;3.47;2.10;;;9.60;99.90;;;;;;4737863;30;20052;-89
2023/04/01 03:25:50;;;;;;;4.15;2.22;;;9.60;99.90;;;;;;4737597;30;20052;-88
2023/04/01 03:28:16;;;;;;;5.07;2.65;;;9.60;99.90;;;;;;4753760;30;20412;-89
2023/04/01 03:30:41;;;;;;;3.22;2.17;;;9.60;99.90;;;;;;4737597;30;20040;-89
2023/04/01 03:33:07;;;;;;;4.25;2.38;;;9.80;99.90;;;;;;4737962;30;20055;-88
2023/04/01 03:35:35;;;;;;;4.72;2.63;;;9.60;99.90;;;;;;4753719;30;20059;-90
2023/04/01 03:38:02;;;;;;;6.53;3.08;;;10.20;99.90;;;;;;4743080;30;20055;-89
2023/04/01 03:40:27;;;;;;;4.47;2.30;;;9.90;99.90;;;;;;4753619;30;20048;-89
2023/04/01 03:42:53;;;;;;;3.60;2.45;;;9.60;99.90;;;;;;4737485;30;20079;-90
2023/04/01 03:45:19;;;;;;;4.20;2.53;;;10.10;99.90;;;;;;4753345;30;20472;-88
2023/04/01 03:47:45;;;;;;;3.60;2.40;;;9.80;99.90;;;;;;4737371;30;20060;-89
2023/04/01 03:50:10;;;;;;;5.82;4.00;;;9.60;99.90;;;;;;4743498;30;20055;-87
2023/04/01 03:52:36;;;;;;;6.35;4.18;;;9.60;99.90;;;;;;4737904;30;20071;-87
2023/04/01 03:55:02;;;;;;;6.65;4.15;;;9.80;99.90;;;;;;4736936;30;21590;-90
2023/04/01 03:57:28;;;;;;;8.32;5.10;;;9.60;99.90;;;;;;4723589;30;20060;-89
2023/04/01 03:59:54;;;;;;;7.00;4.30;;;9.70;99.90;;;;;;4736953;30;20127;-87
2023/04/01 04:02:19;;;;;;;4.70;2.97;;;10.50;99.90;;;;;;4737186;30;20083;-88
2023/04/01 04:04:46;;;;;;;6.15;3.95;;;9.60;99.90;;;;;;4753093;30;20086;-89
2023/04/01 04:07:12;;;;;;;7.00;4.38;;;10.10;99.90;;;;;;4744098;30;21245;-88
2023/04/01 04:09:38;;;;;;;4.78;2.85;;;10.10;99.90;;;;;;4760762;30;20382;-88
2023/04/01 04:12:05;;;;;;;5.68;4.05;;;9.70;99.90;;;;;;4737918;30;20109;-88
2023/04/01 04:14:31;;;;;;;8.32;3.05;;;9.50;99.90;;;;;;4736900;30;20044;-88
2023/04/01 04:16:57;;;;;;;5.25;3.28;;;9.50;99.90;;;;;;4752563;30;20510;-87
2023/04/01 04:19:22;;;;;;;6.72;4.20;;;9.50;99.90;;;;;;4753005;30;20057;-88
2023/04/01 04:21:48;;;;;;;4.93;3.45;;;9.50;99.90;;;;;;4752537;30;20048;-88
2023/04/01 04:24:14;;;;;;;6.72;4.53;;;9.50;99.90;;;;;;4736381;30;20052;-88
2023/04/01 04:26:40;;;;;;;6.05;4.03;;;9.50;99.90;;;;;;4736884;30;20049;-88
2023/04/01 04:29:05;;;;;;;8.30;4.20;;;10.20;99.90;;;;;;4752425;30;20083;-88
2023/04/01 04:31:31;;;;;;;5.85;3.75;;;9.70;99.90;;;;;;4752392;30;20079;-88
2023/04/01 04:34:00;;;;;;;6.65;3.97;;;9.50;99.90;;;;;;4740264;30;20072;-88
2023/04/01 04:36:25;;;;;;;5.13;3.53;;;9.50;99.90;;;;;;4752055;30;20108;-89
2023/04/01 04:38:51;;;;;;;5.47;3.50;;;10.30;99.90;;;;;;4743800;30;20155;-88
2023/04/01 04:41:18;;;;;;;5.43;3.42;;;9.50;99.90;;;;;;4737585;30;20044;-88
2023/04/01 04:43:51;;;;;;;6.00;3.22;;;9.90;99.90;;;;;;4743771;30;20585;-88
2023/04/01 04:46:16;;;;;;;6.15;3.88;;;9.40;99.90;;;;;;4753114;30;20462;-88
2023/04/01 04:48:43;;;;;;;6.13;3.72;;;9.70;99.90;;;;;;4736957;30;20127;-88
2023/04/01 04:51:16;;;;;;;7.15;4.57;;;9.40;99.90;;;;;;4736549;30;20063;-89
2023/04/01 04:53:43;;;;;;;7.78;3.83;;;9.50;99.90;;;;;;4747441;30;20117;-89
2023/04/01 04:56:08;;;;;;;8.00;4.90;;;9.50;99.90;;;;;;4738527;30;20059;-88
2023/04/01 04:58:34;;;;;;;5.90;3.95;;;9.50;99.90;;;;;;4737107;30;20060;-89
2023/04/01 05:01:07;;;;;;;7.53;4.28;;;9.50;99.90;;;;;;4751743;30;20130;-90
2023/04/01 05:03:32;;;;;;;7.63;4.47;;;9.50;99.90;;;;;;4736299;30;20079;-89
2023/04/01 05:05:58;;;;;;;6.35;4.07;;;9.50;99.90;;;;;;4752296;30;20048;-89
2023/04/01 05:08:24;;;;;;;4.78;3.50;;;9.50;99.90;;;;;;4736258;30;20409;-88
2023/04/01 05:10:52;;;;;;;6.65;3.85;;;9.50;99.90;;;;;;4736323;30;20051;-89
2023/04/01 05:13:18;;;;;;;7.90;4.25;;;9.50;99.90;;;;;;4752042;30;20075;-89
2023/04/01 05:15:43;;;;;;;7.68;4.70;;;9.50;99.90;;;;;;4735699;30;20510;-89
2023/04/01 05:18:09;;;;;;;6.72;4.43;;;9.60;99.90;;;;;;4743501;30;20125;-89
2023/04/01 05:20:35;;;;;;;6.45;4.03;;;10.40;99.90;;;;;;4751474;30;20502;-89
2023/04/01 05:23:01;;;;;;;6.97;4.53;;;9.50;99.90;;;;;;4737655;30;20402;-89
2023/04/01 05:25:26;;;;;;;10.68;4.97;;;9.50;99.90;;;;;;4752077;30;20056;-89
2023/04/01 05:27:52;;;;;;;7.43;4.53;;;9.50;99.90;;;;;;4720981;30;20101;-88
2023/04/01 05:30:18;;;;;;;8.73;5.72;;;9.60;99.90;;;;;;4738032;30;20055;-87
2023/04/01 05:32:44;;;;;;;8.05;5.07;;;10.20;99.90;;;;;;4735716;30;20569;-87
2023/04/01 05:35:11;;;;;;;9.43;5.10;;;9.60;99.90;;;;;;4751958;30;20044;-87
2023/04/01 05:37:37;;;;;;;7.45;4.93;;;10.10;99.90;;;;;;4751449;30;20048;-87
2023/04/01 05:40:04;;;;;;;6.90;4.07;;;9.60;99.90;;;;;;4736142;30;20051;-87
2023/04/01 05:42:29;;;;;;;6.57;4.57;;;9.60;99.90;;;;;;4724618;30;20056;-87
2023/04/01 05:44:55;;;;;;;9.73;5.85;;;9.50;99.90;;;;;;4736323;30;20052;-87
2023/04/01 05:47:22;;;;;;;6.85;4.78;;;9.80;99.90;;;;;;4735919;30;20484;-87
2023/04/01 05:49:48;;;;;;;8.25;5.45;;;9.90;99.90;;;;;;4751786;30;20052;-87
2023/04/01 05:52:14;;;;;;;10.43;5.35;;;9.60;99.90;;;;;;4751385;30;20186;-87
2023/04/01 05:54:40;;;;;;;8.50;5.28;;;9.60;99.90;;;;;;4735876;30;20060;-87
2023/04/01 05:57:06;;;;;;;7.72;4.90;;;9.60;99.90;;;;;;4736054;30;20413;-88
2023/04/01 05:59:31;;;;;;;7.63;4.80;;;9.60;99.90;;;;;;4751639;30;20052;-90
2023/04/01 06:01:57;;;;;;;7.63;4.70;;;9.90;99.90;;;;;;4751612;30;20494;-85
2023/04/01 06:04:24;;;;;;;7.45;4.78;;;10.40;99.90;;;;;;4739158;30;20056;-84
2023/04/01 06:06:51;;;;;;;5.30;3.40;;;10.40;99.90;;;;;;4735409;30;20062;-83
2023/04/01 06:09:21;;;;;;;6.45;3.58;;;10.10;99.90;;;;;;4729022;30;20048;-84
2023/04/01 06:12:07;;;;;;;6.97;3.75;;;9.80;99.90;;;;;;4751642;30;20140;-84
2023/04/01 06:14:44;;;;;;;8.13;4.45;;;10.60;99.90;;;;;;4662855;30;20073;-86
2023/04/01 06:17:45;;;;;;;7.47;4.82;;;9.90;99.90;;;;;;4682963;30;20057;-85
2023/04/01 06:20:29;;;;;;;7.85;5.30;;;9.90;99.90;;;;;;4682626;30;20189;-85
2023/04/01 06:23:28;;;;;;;11.98;5.70;;;10.00;99.90;;;;;;4683128;30;20050;-84
2023/04/01 06:26:24;;;;;;;12.50;8.05;;;10.00;99.90;;;;;;4683112;30;20069;-84
2023/04/01 06:29:06;;;;;;;11.13;7.10;;;10.00;99.90;;;;;;4668947;30;20104;-86
2023/04/01 06:31:58;;;;;;;8.90;5.43;;;10.00;99.90;;;;;;4683239;30;20142;-84
2023/04/01 06:34:48;;;;;;;9.02;5.95;;;10.00;99.90;;;;;;4683064;30;20137;-84
2023/04/01 06:37:33;;;;;;;7.80;5.63;;;10.00;99.90;;;;;;4683145;30;20092;-84
2023/04/01 06:40:29;;;;;;;10.07;6.75;;;10.00;99.90;;;;;;4672275;30;20540;-84
2023/04/01 06:43:01;;;;;;;12.82;8.25;;;10.00;99.90;;;;;;4668548;30;20501;-84
2023/04/01 06:45:39;;;;;;;13.27;7.47;;;10.10;99.90;;;;;;4668255;30;20065;-84
2023/04/01 06:48:32;;;;;;;13.20;8.23;;;10.10;99.90;;;;;;4682795;30;20591;-85
2023/04/01 06:51:07;;;;;;;14.32;9.48;;;10.10;99.90;;;;;;4697679;30;20055;-85
2023/04/01 06:53:46;;;;;;;13.60;8.27;;;10.80;99.90;;;;;;4754101;30;20087;-85
2023/04/01 06:56:16;;;;;;;12.15;7.32;;;10.20;99.90;;;;;;4753993;30;20194;-83
2023/04/01 06:59:03;;;;;;;10.55;6.70;;;10.70;99.90;;;;;;4759315;30;20494;-85
2023/04/01 07:01:40;;;;;;;10.65;6.63;;;10.20;99.90;;;;;;4753703;30;20044;-84
2023/04/01 07:04:18;;;;;;;10.40;6.68;;;10.30;99.90;;;;;;4741771;30;20088;-83
2023/04/01 07:07:14;;;;;;;10.38;6.88;;;10.40;99.90;;;;;;4731663;30;20053;-85
2023/04/01 07:09:49;;;;;;;10.65;6.78;;;10.40;99.90;;;;;;4753518;30;20513;-84
2023/04/01 07:12:35;;;;;;;11.05;6.97;;;10.40;99.90;;;;;;4723341;30;20063;-85
2023/04/01 07:15:26;;;;;;;11.38;6.85;;;10.40;99.90;;;;;;4749441;30;20056;-86
2023/04/01 07:18:05;;;;;;;11.38;6.57;;;10.40;99.90;;;;;;4752337;30;20063;-88
2023/04/01 07:20:35;;;;;;;12.10;7.63;;;10.40;99.90;;;;;;4755865;30;20055;-88
2023/04/01 07:23:10;;;;;;;11.18;7.22;;;10.50;99.90;;;;;;4766649;30;20044;-88
2023/04/01 07:25:41;;;;;;;11.50;7.55;;;11.20;99.90;;;;;;4753472;30;20051;-90
2023/04/01 07:28:13;;;;;;;11.65;6.97;;;10.60;99.90;;;;;;4757997;30;20115;-93
2023/04/01 07:30:57;;;;;;;12.13;7.05;;;10.60;99.90;;;;;;4759325;30;20056;-92
2023/04/01 07:33:43;;;;;;;13.07;8.02;;;10.20;99.90;;;;;;4763595;30;20060;-87
2023/04/01 07:36:36;;;;;;;12.68;7.93;;;10.70;99.90;;;;;;4733418;30;20048;-88
2023/04/01 07:39:12;;;;;;;10.63;6.88;;;10.80;99.90;;;;;;4746586;30;20056;-86
2023/04/01 07:41:59;;;;;;;11.32;7.25;;;10.90;99.90;;;;;;4753262;30;20070;-86
2023/04/01 07:44:44;;;;;;;9.50;6.07;;;10.90;99.90;;;;;;4739166;30;20067;-87
2023/04/01 07:47:28;;;;;;;12.38;7.28;;;10.90;99.90;;;;;;4725422;30;20053;-86
2023/04/01 07:50:15;;;;;;;11.57;7.93;;;10.90;99.90;;;;;;4735509;30;20037;-87
2023/04/01 07:56:59;;;;;;;10.07;6.07;;;10.90;99.90;;;;;;4731798;30;20091;-89
2023/04/01 07:59:45;;;;;;;11.15;6.53;;;10.90;99.90;;;;;;4732037;30;20056;-88
2023/04/01 08:02:17;;;;;;;14.35;7.63;;;11.00;99.90;;;;;;4729528;30;20068;-88
2023/04/01 08:05:21;;;;;;;13.55;7.22;;;11.10;99.90;;;;;;4724490;30;20072;-87
2023/04/01 08:08:18;;;;;;;11.05;6.88;;;11.20;99.90;;;;;;4719883;30;20103;-87
2023/04/01 08:10:45;;;;;;;9.10;6.32;;;11.20;99.90;;;;;;4670719;30;20108;-88
2023/04/01 08:13:40;;;;;;;10.00;6.47;;;11.20;99.90;;;;;;4650266;30;20070;-88
2023/04/01 08:16:31;;;;;;;11.45;6.57;;;11.40;99.90;;;;;;4610358;31;20117;-89
2023/04/01 08:19:16;;;;;;;11.48;6.28;;;11.40;99.90;;;;;;4616171;31;20471;-86
2023/04/01 08:21:47;;;;;;;9.63;5.68;;;11.80;99.90;;;;;;4615832;31;20597;-87
2023/04/01 08:24:29;;;;;;;9.13;6.00;;;11.50;99.90;;;;;;4616204;31;20059;-85
2023/04/01 08:26:59;;;;;;;5.30;2.95;;;11.60;99.90;;;;;;4644321;30;20142;-89
2023/04/01 08:29:40;;;;;;;3.65;2.10;;;11.50;99.90;;;;;;4630383;31;20485;-87
2023/04/01 08:32:28;;;;;;;5.38;2.08;;;11.30;99.90;;;;;;4615789;31;20086;-87
2023/04/01 08:35:31;;;;;;;4.22;1.70;;;11.30;99.90;;;;;;4629727;31;20068;-86
2023/04/01 08:38:09;;;;;;;2.95;1.58;;;11.10;99.90;;;;;;4629810;31;20530;-87
2023/04/01 08:40:58;;;;;;;2.58;1.40;;;11.10;99.90;;;;;;4616283;31;20190;-86
2023/04/01 08:43:45;;;;;;;2.58;1.60;;;11.00;99.90;;;;;;4625382;31;20163;-88
2023/04/01 08:46:28;;;;;;;2.88;1.58;;;10.90;99.90;;;;;;4630336;30;20065;-89
2023/04/01 08:49:12;;;;;;;2.63;1.63;;;10.70;99.90;;;;;;4680523;30;20129;-88
2023/04/01 08:51:41;;;;;;;3.42;1.60;;;10.70;99.90;;;;;;4666493;30;20062;-88
2023/04/01 08:54:46;;;;;;;2.63;1.55;;;10.90;99.90;;;;;;4732052;30;20153;-88
2023/04/01 08:57:31;;;;;;;2.85;1.40;;;10.70;99.90;;;;;;4734245;30;20496;-88
2023/04/01 09:00:11;;;;;;;3.03;1.45;;;10.70;99.90;;;;;;4727001;30;20060;-86
2023/04/01 09:03:04;;;;;;;2.33;1.40;;;10.60;99.90;;;;;;4733320;30;20407;-86
2023/04/01 09:05:57;;;;;;;1.50;0.73;;;10.60;99.90;;;;;;4733320;30;20057;-85
2023/04/01 09:08:45;;;;;;;1.73;1.13;;;10.50;99.90;;;;;;4730849;30;20065;-86
2023/04/01 09:11:29;;;;;;;2.35;0.98;;;10.40;99.90;;;;;;4729190;30;20041;-87
2023/04/01 09:14:25;;;;;;;2.10;1.00;;;10.40;99.90;;;;;;4733146;30;20056;-86
2023/04/01 09:17:01;;;;;;;3.40;1.10;;;10.20;99.90;;;;;;4732814;30;20480;-87
2023/04/01 09:19:50;;;;;;;1.85;0.70;;;10.30;99.90;;;;;;4732771;30;20088;-87
2023/04/01 09:22:44;;;;;;;1.77;0.93;;;10.10;99.90;;;;;;4713633;30;20048;-88
2023/04/01 09:26:11;;;;;;;1.55;0.88;;;10.00;99.90;;;;;;4727463;30;20380;-85
2023/04/01 09:29:24;;;;;;;1.88;0.90;;;10.00;99.90;;;;;;4666233;30;20145;-87
2023/04/01 09:31:55;;;;;;;2.70;1.00;;;10.00;99.90;;;;;;4615287;31;20068;-87
2023/04/01 09:35:11;;;;;;;2.22;1.02;;;9.90;99.90;;;;;;4615213;31;20065;-87
2023/04/01 09:37:46;;;;;;;1.80;0.70;;;9.90;99.90;;;;;;4581975;31;20189;-88
2023/04/01 09:40:23;;;;;;;;;;;9.80;99.90;;;;;;4576861;31;20424;-86
2023/04/01 09:43:14;;;;;;;1.38;0.60;;;9.90;99.90;;;;;;4581608;31;19929;-86
2023/04/01 09:46:10;;;;;;;1.17;0.70;;;9.90;99.90;;;;;;4588459;31;20064;-86
2023/04/01 09:49:25;;;;;;;2.00;0.83;;;9.90;99.90;;;;;;4584264;31;20072;-88
2023/04/01 09:52:25;;;;;;;2.20;1.00;;;9.90;99.90;;;;;;5073419;27;20966;-87
2023/04/01 09:55:03;;;;;;;1.60;0.80;;;10.00;99.90;;;;;;5072123;28;20057;-86
2023/04/01 09:57:40;;;;;;;3.10;0.90;;;10.00;99.90;;;;;;5080195;28;20043;-85
2023/04/01 10:00:38;;;;;;;1.38;0.90;;;10.70;99.90;;;;;;5076997;28;20048;-85
2023/04/01 10:03:22;;;;;;;2.25;1.48;;;9.90;99.90;;;;;;5068485;28;20516;-84
2023/04/01 10:05:57;;;;;;;1.27;0.88;;;9.80;99.90;;;;;;5075298;28;20048;-86
2023/04/01 10:08:51;;;;;;;1.27;0.50;;;9.40;99.90;;;;;;5070472;28;20477;-86
2023/04/01 10:12:03;;;;;;;1.40;0.75;;;9.70;99.90;;;;;;5064658;28;20087;-82
2023/04/01 10:14:34;;;;;;;1.38;0.98;;;9.80;99.90;;;;;;5081181;28;20046;-85
2023/04/01 10:17:37;;;;;;;2.88;0.90;;;9.70;99.90;;;;;;5065839;28;20072;-86
2023/04/01 10:20:31;;;;;;;1.65;0.88;;;9.80;99.90;;;;;;5084630;28;20067;-86
2023/04/01 10:23:12;;;;;;;0.70;0.57;;;9.80;99.90;;;;;;5082055;28;20560;-87
2023/04/01 10:26:08;;;;;;;1.25;0.75;;;9.80;99.90;;;;;;5073300;28;20044;-91
2023/04/01 10:28:47;;;;;;;0.75;0.63;;;9.80;99.90;;;;;;5058414;28;20049;-88
2023/04/01 10:31:50;;;;;;;1.30;0.50;;;9.90;99.90;;;;;;5075882;28;20060;-89
2023/04/01 10:34:39;;;;;;;1.48;0.63;;;9.90;99.90;;;;;;5094813;28;20052;-89
2023/04/01 10:37:04;;;;;;;1.15;0.60;;;9.90;99.90;;;;;;5093933;28;20063;-88
2023/04/01 10:40:09;;;;;;;1.13;0.70;;;9.90;99.90;;;;;;5073579;28;20036;-88
2023/04/01 10:43:13;;;;;;;1.00;0.60;;;10.00;99.90;;;;;;4994794;28;20045;-87
2023/04/01 10:45:49;;;;;;;1.77;0.60;;;9.90;99.90;;;;;;4992051;28;20093;-87
2023/04/01 10:48:23;;;;;;;2.80;0.70;;;10.90;99.90;;;;;;5014308;28;20046;-88
2023/04/01 10:51:24;;;;;;;1.90;0.90;;;9.90;99.90;;;;;;4995557;28;20046;-88
2023/04/01 10:54:17;;;;;;;0.90;0.50;;;9.90;99.90;;;;;;4956077;28;20136;-86
2023/04/01 10:57:06;;;;;;;0.77;0.52;;;9.80;99.90;;;;;;4965282;28;20069;-89
2023/04/01 10:59:55;;;;;;;1.83;0.80;;;9.80;99.90;;;;;;4974115;28;20059;-87
2023/04/01 11:02:27;;;;;;;1.17;0.75;;;9.70;99.90;;;;;;4940374;29;20099;-86
2023/04/01 11:05:26;;;;;;;1.65;0.60;;;9.60;99.90;;;;;;4960757;28;20246;-86
2023/04/01 11:08:29;;;;;;;1.05;0.60;;;9.60;99.90;;;;;;4940417;29;20043;-85
2023/04/01 11:10:54;;;;;;;0.93;0.70;;;9.50;99.90;;;;;;4951655;29;20055;-87
2023/04/01 11:13:47;;;;;;;1.77;0.82;;;9.50;99.90;;;;;;4952860;29;20043;-88
2023/04/01 11:16:38;;;;;;;2.50;1.60;;;9.50;99.90;;;;;;4976371;28;20089;-90
2023/04/01 11:19:15;;;;;;;1.75;0.80;;;9.60;99.90;;;;;;4994526;28;20498;-90
2023/04/01 11:22:16;;;;;;;0.63;0.50;;;9.60;99.90;;;;;;5010921;28;20506;-90
2023/04/01 11:25:05;;;;;;;1.15;0.70;;;9.60;99.90;;;;;;4977950;28;20097;-87
2023/04/01 11:27:41;;;;;;;2.95;0.60;;;9.60;99.90;;;;;;4991249;28;20491;-86
2023/04/01 11:30:28;;;;;;;1.48;0.70;;;9.60;99.90;;;;;;5026491;28;20102;-86
2023/04/01 11:33:03;;;;;;;1.15;0.70;;;9.60;99.90;;;;;;5087718;28;20052;-85
2023/04/01 11:35:37;;;;;;;0.98;0.65;;;9.60;99.90;;;;;;5087593;28;20041;-86
2023/04/01 11:38:30;;;;;;;2.20;0.80;;;9.60;99.90;;;;;;5054239;28;20041;-87
2023/04/01 11:40:56;;;;;;;2.08;0.63;;;9.60;99.90;;;;;;5071211;28;20045;-86
2023/04/01 11:43:36;;;;;;;1.13;0.40;;;9.70;99.90;;;;;;5055006;28;20044;-87
2023/04/01 11:46:12;;;;;;;1.25;0.50;;;9.60;99.90;;;;;;5063350;28;20110;-87
2023/04/01 11:48:47;;;;;;;1.10;0.52;;;9.60;99.90;;;;;;5060123;28;20072;-86
2023/04/01 11:51:21;;;;;;;1.50;0.60;;;9.80;99.90;;;;;;5061285;28;20108;-87
2023/04/01 11:54:09;;;;;;;1.15;0.70;;;9.60;99.90;;;;;;5062804;28;20056;-87
2023/04/01 11:56:51;;;;;;;0.60;0.60;;;10.70;99.90;;;;;;5002691;28;20053;-88
2023/04/01 11:59:40;;;;;;;1.05;0.50;;;9.60;99.90;;;;;;4996665;28;20045;-86
2023/04/01 12:02:26;;;;;;;1.20;0.57;;;9.60;99.90;;;;;;5005258;28;20061;-91
2023/04/01 12:05:34;;;;;;;0.70;0.57;;;9.70;99.90;;;;;;5004912;28;20076;-86
2023/04/01 12:08:14;;;;;;;0.50;0.40;;;9.80;99.90;;;;;;5003199;28;20062;-85
2023/04/01 12:10:51;;;;;;;3.42;0.80;;;9.90;99.90;;;;;;4996167;28;20060;-86
2023/04/01 12:13:29;;;;;;;1.50;0.50;;;10.00;99.90;;;;;;5017869;28;20379;-86
2023/04/01 12:16:32;;;;;;;1.80;0.60;;;10.00;99.90;;;;;;4998229;28;20045;-86
2023/04/01 12:19:26;;;;;;;1.23;0.57;;;10.00;99.90;;;;;;4972210;28;20153;-88
2023/04/01 12:22:21;;;;;;;0.93;0.50;;;10.10;99.90;;;;;;4983982;28;20062;-85
2023/04/01 12:24:52;;;;;;;1.38;0.55;;;10.00;99.90;;;;;;5001697;28;20093;-85
2023/04/01 12:27:36;;;;;;;0.65;0.50;;;10.00;99.90;;;;;;5003455;28;20089;-85
2023/04/01 12:30:24;;;;;;;1.38;0.50;;;10.00;99.90;;;;;;4992681;28;20054;-86
2023/04/01 12:33:05;;;;;;;0.80;0.50;;;10.10;99.90;;;;;;4991341;28;20049;-85
2023/04/01 12:35:53;;;;;;;0.93;0.50;;;10.20;99.90;;;;;;5042791;28;20072;-85
2023/04/01 12:38:31;;;;;;;1.17;0.60;;;10.00;99.90;;;;;;5017310;28;20571;-85
2023/04/01 12:41:07;;;;;;;0.60;0.50;;;10.40;99.90;;;;;;5025587;28;20060;-85
2023/04/01 12:43:54;;;;;;;0.73;0.60;;;10.00;99.90;;;;;;5042657;28;20048;-85
2023/04/01 12:46:35;;;;;;;0.73;0.70;;;9.80;99.90;;;;;;5025868;28;20052;-86
2023/04/01 12:49:28;;;;;;;1.05;0.50;;;10.00;99.90;;;;;;5041841;28;20060;-85
2023/04/01 12:52:08;;;;;;;0.55;0.50;;;10.00;99.90;;;;;;5040307;28;20136;-85
2023/04/01 12:54:56;;;;;;;0.82;0.60;;;10.10;99.90;;;;;;5040822;28;20056;-85
2023/04/01 12:57:55;;;;;;;0.80;0.50;;;10.10;99.90;;;;;;5055289;28;20044;-85
2023/04/01 13:00:48;;;;;;;0.93;0.55;;;10.00;99.90;;;;;;5053584;28;20080;-85
2023/04/01 13:03:43;;;;;;;1.17;0.60;;;10.00;99.90;;;;;;5053665;28;20045;-86
2023/04/01 13:06:22;;;;;;;2.88;0.50;;;10.00;99.90;;;;;;5058130;28;20124;-86
2023/04/01 13:09:16;;;;;;;1.95;0.50;;;10.10;99.90;;;;;;5041151;28;20107;-85
2023/04/01 13:12:09;;;;;;;0.63;0.50;;;10.00;99.90;;;;;;5022190;28;20060;-86
2023/04/01 13:14:50;;;;;;;0.90;0.68;;;9.90;99.90;;;;;;5038928;28;20057;-86
2023/04/01 13:17:35;;;;;;;0.63;0.45;;;9.90;99.90;;;;;;5055498;28;20128;-85
2023/04/01 13:20:09;;;;;;;1.08;0.70;;;9.90;99.90;;;;;;5022062;28;20052;-85
2023/04/01 13:23:03;;;;;;;1.67;0.60;;;10.00;99.90;;;;;;5038930;28;20413;-85
2023/04/01 13:26:00;;;;;;;0.65;0.40;;;9.90;99.90;;;;;;5055011;28;20063;-86
2023/04/01 13:28:37;;;;;;;1.48;0.50;;;10.20;99.90;;;;;;5041911;28;20417;-85
2023/04/01 13:31:12;;;;;;;0.70;0.47;;;9.90;99.90;;;;;;5056595;28;20668;-85
2023/04/01 13:34:16;;;;;;;6.53;0.77;;;9.90;99.90;;;;;;5030635;28;20125;-85
2023/04/01 13:36:57;;;;;;;0.80;0.50;;;9.90;99.90;;;;;;5041873;28;20453;-85
2023/04/01 13:39:35;;;;;;;0.75;0.40;;;9.90;99.90;;;;;;5031067;28;20069;-85
2023/04/01 13:42:25;;;;;;;0.55;0.35;;;10.00;99.90;;;;;;5045121;28;20059;-86
2023/04/01 13:45:16;;;;;;;0.43;0.30;;;10.00;99.90;;;;;;5063888;28;20039;-86
2023/04/01 13:48:13;;;;;;;1.38;0.30;;;10.10;99.90;;;;;;5052380;28;20051;-85